createdAt,value
2022-11-28T00:01:49.167Z,2.23
2022-11-28T00:04:51.742Z,2.16
2022-11-28T00:07:53.828Z,2.21
2022-11-28T00:10:55.490Z,2.22
2022-11-28T00:13:58.646Z,2.29
2022-11-28T00:17:00.282Z,2.23
2022-11-28T00:20:01.992Z,2.12
2022-11-28T00:23:03.685Z,2.10
2022-11-28T00:26:06.677Z,2.12
2022-11-28T00:29:10.004Z,2.04
2022-11-28T00:32:11.740Z,2.07
2022-11-28T00:35:13.531Z,2.08
2022-11-28T00:38:15.226Z,1.98
2022-11-28T00:41:18.142Z,1.94
2022-11-28T00:44:21.148Z,2.00
2022-11-28T00:47:22.838Z,2.05
2022-11-28T00:50:24.551Z,1.92
2022-11-28T00:53:26.185Z,1.83
2022-11-28T00:56:29.671Z,1.82
2022-11-28T00:59:32.697Z,1.93
2022-11-28T01:02:34.521Z,1.77
2022-11-28T01:05:39.660Z,1.92
2022-11-28T01:08:41.448Z,1.82
2022-11-28T01:11:43.659Z,1.82
2022-11-28T01:14:46.737Z,1.91
2022-11-28T01:17:48.387Z,1.88
2022-11-28T01:20:51.221Z,1.88
2022-11-28T01:23:52.904Z,1.93
2022-11-28T01:26:54.559Z,1.93
2022-11-28T01:29:57.620Z,1.95
2022-11-28T01:32:59.250Z,1.92
2022-11-28T01:36:01.202Z,1.76
2022-11-28T01:39:03.356Z,1.75
2022-11-28T01:42:05.026Z,1.79
2022-11-28T01:45:16.022Z,1.56
2022-11-28T01:48:20.617Z,1.58
2022-11-28T01:51:22.251Z,1.51
2022-11-28T01:54:25.624Z,1.42
2022-11-28T01:57:28.084Z,1.50
2022-11-28T02:00:31.271Z,1.47
2022-11-28T02:03:35.971Z,1.46
2022-11-28T02:06:38.289Z,1.59
2022-11-28T02:09:43.797Z,1.56
2022-11-28T02:12:54.303Z,1.62
2022-11-28T02:16:07.244Z,1.49
2022-11-28T02:19:20.823Z,1.47
2022-11-28T02:22:25.286Z,1.36
2022-11-28T02:25:39.475Z,1.37
2022-11-28T02:29:01.751Z,1.29
2022-11-28T02:32:13.384Z,1.22
2022-11-28T02:35:18.145Z,1.44
2022-11-28T02:38:22.213Z,1.46
2022-11-28T02:41:29.419Z,1.45
2022-11-28T02:44:34.581Z,1.30
2022-11-28T02:47:38.939Z,1.40
2022-11-28T02:50:43.037Z,1.37
2022-11-28T02:53:45.886Z,1.38
2022-11-28T02:56:47.834Z,1.26
2022-11-28T02:59:50.263Z,1.29
2022-11-28T03:02:58.047Z,1.17
2022-11-28T03:06:02.594Z,1.07
2022-11-28T03:09:11.652Z,1.14
2022-11-28T03:12:20.030Z,1.07
2022-11-28T03:15:22.548Z,1.14
2022-11-28T03:18:28.441Z,1.23
2022-11-28T03:21:36.590Z,1.18
2022-11-28T03:24:42.176Z,1.26
2022-11-28T03:27:45.787Z,1.08
2022-11-28T03:30:50.153Z,1.21
2022-11-28T03:33:55.249Z,1.31
2022-11-28T03:36:59.782Z,1.36
2022-11-28T03:40:03.357Z,1.28
2022-11-28T03:43:07.338Z,1.13
2022-11-28T03:46:11.599Z,1.08
2022-11-28T03:49:16.527Z,1.04
2022-11-28T03:52:22.927Z,1.18
2022-11-28T03:55:28.223Z,1.21
2022-11-28T03:58:32.951Z,1.20
2022-11-28T04:01:38.572Z,1.18
2022-11-28T04:04:46.709Z,1.24
2022-11-28T04:07:51.195Z,1.13
2022-11-28T04:10:56.634Z,1.19
2022-11-28T04:14:00.772Z,1.21
2022-11-28T04:17:05.271Z,1.20
2022-11-28T04:20:12.189Z,1.21
2022-11-28T04:23:14.972Z,1.22
2022-11-28T04:26:18.625Z,1.15
2022-11-28T04:29:22.081Z,1.00
2022-11-28T04:32:25.352Z,0.90
2022-11-28T04:35:30.506Z,0.86
2022-11-28T04:38:33.225Z,0.88
2022-11-28T04:41:37.799Z,0.94
2022-11-28T04:44:44.410Z,0.95
2022-11-28T04:47:46.364Z,0.81
2022-11-28T04:50:53.037Z,0.76
2022-11-28T04:53:59.286Z,0.75
2022-11-28T04:57:02.697Z,0.93
2022-11-28T05:00:06.703Z,1.02
2022-11-28T05:03:09.685Z,0.93
2022-11-28T05:06:22.040Z,1.00
2022-11-28T05:09:23.711Z,0.98
2022-11-28T05:12:25.359Z,0.97
2022-11-28T05:15:26.994Z,0.90
2022-11-28T05:18:28.720Z,0.84
2022-11-28T05:21:31.777Z,0.88
2022-11-28T05:24:33.651Z,0.81
2022-11-28T05:27:35.570Z,0.82
2022-11-28T05:30:37.280Z,0.78
2022-11-28T05:33:39.213Z,0.73
2022-11-28T05:36:42.254Z,0.82
2022-11-28T05:39:44.128Z,0.83
2022-11-28T05:42:45.967Z,0.76
2022-11-28T05:45:47.666Z,0.85
2022-11-28T05:48:49.486Z,0.87
2022-11-28T05:51:52.555Z,0.81
2022-11-28T05:54:54.165Z,0.83
2022-11-28T05:57:56.454Z,0.82
2022-11-28T06:00:58.099Z,0.66
2022-11-28T06:04:00.111Z,0.77
2022-11-28T06:07:03.314Z,0.82
2022-11-28T06:10:05.579Z,0.74
2022-11-28T06:13:07.237Z,0.67
2022-11-28T06:16:09.392Z,0.63
2022-11-28T06:19:12.508Z,0.62
2022-11-28T06:22:15.875Z,0.65
2022-11-28T06:25:17.690Z,0.70
2022-11-28T06:28:19.346Z,0.74
2022-11-28T06:31:22.435Z,0.74
2022-11-28T06:34:25.440Z,0.76
2022-11-28T06:37:31.905Z,0.70
2022-11-28T06:40:33.807Z,0.73
2022-11-28T06:43:35.922Z,0.53
2022-11-28T06:46:37.799Z,0.69
2022-11-28T06:49:39.587Z,0.69
2022-11-28T06:52:42.714Z,0.82
2022-11-28T06:55:45.079Z,0.73
2022-11-28T06:58:47.118Z,0.73
2022-11-28T07:01:48.851Z,0.78
2022-11-28T07:04:50.683Z,0.75
2022-11-28T07:07:54.692Z,0.75
2022-11-28T07:10:56.757Z,0.80
2022-11-28T07:13:59.149Z,0.81
2022-11-28T07:17:01.053Z,0.84
2022-11-28T07:20:03.534Z,0.80
2022-11-28T07:23:06.633Z,0.78
2022-11-28T07:26:08.692Z,0.56
2022-11-28T07:29:13.721Z,0.66
2022-11-28T07:32:15.383Z,0.64
2022-11-28T07:35:17.125Z,0.66
2022-11-28T07:38:20.236Z,0.70
2022-11-28T07:41:26.214Z,0.76
2022-11-28T07:44:28.648Z,0.75
2022-11-28T07:47:30.398Z,0.62
2022-11-28T07:50:32.359Z,0.60
2022-11-28T07:53:35.416Z,0.67
2022-11-28T07:57:10.695Z,0.76
2022-11-28T07:59:59.488Z,0.72
2022-11-28T08:03:01.173Z,0.69
2022-11-28T08:06:03.418Z,0.73
2022-11-28T08:09:06.815Z,0.74
2022-11-28T08:12:08.545Z,0.62
2022-11-28T08:15:10.749Z,0.71
2022-11-28T08:18:12.385Z,0.66
2022-11-28T08:21:15.643Z,0.70
2022-11-28T08:24:19.111Z,0.79
2022-11-28T08:27:20.886Z,0.64
2022-11-28T08:30:22.608Z,0.70
2022-11-28T08:33:24.429Z,0.76
2022-11-28T08:36:28.925Z,0.77
2022-11-28T08:39:32.611Z,0.82
2022-11-28T08:42:34.536Z,0.80
2022-11-28T08:45:36.604Z,0.70
2022-11-28T08:48:38.817Z,0.73
2022-11-28T08:51:40.504Z,0.73
2022-11-28T08:54:44.056Z,0.73
2022-11-28T08:57:46.004Z,0.81
2022-11-28T09:00:47.721Z,0.58
2022-11-28T09:03:49.611Z,0.73
2022-11-28T09:06:51.567Z,0.56
2022-11-28T09:09:54.679Z,0.72
2022-11-28T09:12:56.365Z,0.77
2022-11-28T09:15:58.013Z,0.87
2022-11-28T09:18:59.862Z,0.83
2022-11-28T09:22:01.545Z,0.92
2022-11-28T09:25:04.926Z,0.95
2022-11-28T09:28:06.861Z,1.07
2022-11-28T09:31:09.200Z,1.22
2022-11-28T09:34:11.031Z,1.20
2022-11-28T09:37:12.749Z,1.19
2022-11-28T09:40:18.000Z,1.37
2022-11-28T09:43:29.857Z,1.39
2022-11-28T09:46:34.494Z,1.40
2022-11-28T09:49:41.115Z,1.36
2022-11-28T09:52:46.272Z,1.30
2022-11-28T09:55:50.440Z,1.40
2022-11-28T09:58:54.939Z,1.49
2022-11-28T10:02:00.974Z,1.45
2022-11-28T10:05:08.676Z,1.46
2022-11-28T10:08:16.954Z,1.61
2022-11-28T10:11:26.159Z,1.54
2022-11-28T10:14:48.648Z,1.54
2022-11-28T10:17:55.310Z,1.60
2022-11-28T10:20:58.162Z,1.45
2022-11-28T10:24:02.074Z,1.43
2022-11-28T10:27:05.995Z,1.39
2022-11-28T10:30:08.931Z,1.44
2022-11-28T10:33:16.958Z,1.52
2022-11-28T10:36:22.549Z,1.56
2022-11-28T10:39:25.231Z,1.59
2022-11-28T10:42:31.863Z,1.66
2022-11-28T10:45:43.528Z,1.59
2022-11-28T10:48:50.031Z,1.59
2022-11-28T10:51:58.034Z,1.53
2022-11-28T10:55:08.105Z,1.57
2022-11-28T10:58:16.972Z,1.67
2022-11-28T11:01:18.670Z,1.68
2022-11-28T11:04:21.573Z,1.69
2022-11-28T11:07:29.450Z,1.71
2022-11-28T11:10:33.756Z,1.77
2022-11-28T11:13:55.928Z,1.83
2022-11-28T11:16:57.737Z,1.85
2022-11-28T11:19:59.572Z,1.77
2022-11-28T11:23:02.574Z,1.73
2022-11-28T11:26:05.331Z,1.83
2022-11-28T11:29:19.607Z,1.79
2022-11-28T11:32:24.048Z,1.77
2022-11-28T11:35:27.821Z,1.88
2022-11-28T11:38:36.162Z,1.93
2022-11-28T11:41:40.261Z,1.91
2022-11-28T11:44:43.460Z,1.86
2022-11-28T11:47:45.295Z,1.96
2022-11-28T11:50:54.296Z,2.01
2022-11-28T11:54:03.059Z,2.01
2022-11-28T11:57:31.458Z,2.08
2022-11-28T12:00:32.867Z,2.12
2022-11-28T12:03:39.451Z,2.20
2022-11-28T12:06:43.951Z,2.22
2022-11-28T12:09:48.016Z,2.31
2022-11-28T12:12:49.902Z,2.31
2022-11-28T12:15:56.769Z,2.34
2022-11-28T12:19:02.224Z,2.28
2022-11-28T12:22:10.276Z,2.30
2022-11-28T12:25:13.915Z,2.30
2022-11-28T12:28:22.390Z,2.40
2022-11-28T12:31:33.120Z,2.38
2022-11-28T12:34:39.650Z,2.39
2022-11-28T12:38:10.341Z,2.43
2022-11-28T12:41:20.381Z,2.45
2022-11-28T12:44:26.237Z,2.57
2022-11-28T12:47:38.233Z,2.49
2022-11-28T12:50:41.732Z,2.44
2022-11-28T12:53:59.138Z,2.44
2022-11-28T12:57:06.568Z,2.45
2022-11-28T13:00:11.206Z,2.44
2022-11-28T13:03:23.592Z,2.45
2022-11-28T13:06:31.952Z,2.49
2022-11-28T13:09:34.719Z,2.41
2022-11-28T13:12:43.317Z,2.53
2022-11-28T13:15:52.036Z,2.48
2022-11-28T13:18:58.635Z,2.47
2022-11-28T13:22:06.770Z,2.47
2022-11-28T13:25:16.930Z,2.41
2022-11-28T13:28:21.926Z,2.42
2022-11-28T13:31:27.357Z,2.43
2022-11-28T13:34:31.370Z,2.45
2022-11-28T13:41:04.879Z,2.50
2022-11-28T13:44:11.970Z,2.42
2022-11-28T13:47:14.104Z,2.42
2022-11-28T13:50:36.441Z,2.47
2022-11-28T13:53:38.419Z,2.44
2022-11-28T13:56:40.127Z,2.44
2022-11-28T13:59:47.204Z,2.40
2022-11-28T14:02:51.299Z,2.48
2022-11-28T14:05:57.278Z,2.48
2022-11-28T14:09:02.857Z,2.50
2022-11-28T14:12:10.782Z,2.52
2022-11-28T14:15:19.047Z,2.49
2022-11-28T14:21:57.943Z,2.49
2022-11-28T14:25:02.352Z,2.51
2022-11-28T14:28:06.031Z,2.59
2022-11-28T14:31:24.798Z,2.58
2022-11-28T14:34:36.591Z,2.57
2022-11-28T14:37:56.136Z,2.55
2022-11-28T14:41:03.473Z,2.57
2022-11-28T14:44:23.722Z,2.47
2022-11-28T14:47:28.402Z,2.54
2022-11-28T14:51:02.059Z,2.51
2022-11-28T14:54:22.556Z,2.52
2022-11-28T14:57:26.932Z,2.51
2022-11-28T15:00:31.867Z,2.52
2022-11-28T15:03:39.100Z,2.52
2022-11-28T15:06:41.229Z,2.54
2022-11-28T15:09:46.663Z,2.48
2022-11-28T15:12:54.848Z,2.44
2022-11-28T15:15:56.566Z,2.40
2022-11-28T15:19:02.346Z,2.42
2022-11-28T15:22:04.481Z,2.35
2022-11-28T15:25:17.622Z,2.32
2022-11-28T15:28:20.923Z,2.39
2022-11-28T15:31:23.240Z,2.41
2022-11-28T15:34:26.717Z,2.46
2022-11-28T15:37:30.412Z,2.51
2022-11-28T15:40:33.333Z,2.46
2022-11-28T15:43:37.864Z,2.36
2022-11-28T15:46:39.601Z,2.23
2022-11-28T15:49:41.331Z,2.28
2022-11-28T15:52:52.423Z,2.39
2022-11-28T15:56:10.581Z,2.46
2022-11-28T15:59:13.614Z,2.48
2022-11-28T16:02:17.851Z,2.48
2022-11-28T16:05:21.262Z,2.44
2022-11-28T16:08:27.222Z,2.47
2022-11-28T16:11:31.394Z,2.48
2022-11-28T16:14:35.678Z,2.49
2022-11-28T16:17:39.618Z,2.42
2022-11-28T16:20:41.961Z,2.42
2022-11-28T16:23:44.078Z,2.40
2022-11-28T16:26:54.159Z,2.45
2022-11-28T16:29:57.681Z,2.39
2022-11-28T16:33:02.353Z,2.37
2022-11-28T16:36:11.608Z,2.39
2022-11-28T16:39:15.464Z,2.38
2022-11-28T16:42:17.418Z,2.46
2022-11-28T16:45:24.082Z,2.42
2022-11-28T16:48:34.938Z,2.44
2022-11-28T16:51:37.921Z,2.43
2022-11-28T16:54:39.835Z,2.44
2022-11-28T16:57:44.994Z,2.43
2022-11-28T17:00:51.858Z,2.47
2022-11-28T17:03:54.068Z,2.53
2022-11-28T17:06:56.937Z,2.50
2022-11-28T17:09:59.052Z,2.57
2022-11-28T17:13:01.197Z,2.59
2022-11-28T17:16:04.892Z,2.57
2022-11-28T17:19:07.792Z,2.59
2022-11-28T17:22:12.901Z,2.63
2022-11-28T17:25:17.746Z,2.60
2022-11-28T17:28:23.194Z,2.60
2022-11-28T17:31:28.802Z,2.64
2022-11-28T17:34:32.038Z,2.68
2022-11-28T17:37:34.211Z,2.68
2022-11-28T17:40:36.482Z,2.71
2022-11-28T17:43:39.335Z,2.71
2022-11-28T17:46:45.293Z,2.68
2022-11-28T17:49:48.309Z,2.70
2022-11-28T17:52:51.182Z,2.60
2022-11-28T17:55:53.933Z,2.69
2022-11-28T17:58:56.588Z,2.71
2022-11-28T18:02:00.081Z,2.69
2022-11-28T18:05:03.045Z,2.69
2022-11-28T18:08:05.411Z,2.65
2022-11-28T18:11:08.204Z,2.63
2022-11-28T18:14:10.620Z,2.63
2022-11-28T18:17:14.596Z,2.65
2022-11-28T18:20:16.694Z,2.62
2022-11-28T18:23:20.503Z,2.63
2022-11-28T18:26:24.168Z,2.55
2022-11-28T18:29:26.683Z,2.56
2022-11-28T18:32:31.390Z,2.57
2022-11-28T18:35:33.403Z,2.55
2022-11-28T18:38:35.769Z,2.56
2022-11-28T18:41:38.165Z,2.56
2022-11-28T18:44:40.668Z,2.43
2022-11-28T18:47:44.803Z,2.51
2022-11-28T18:50:47.357Z,2.48
2022-11-28T18:53:50.324Z,2.50
2022-11-28T18:56:52.899Z,2.51
2022-11-28T18:59:57.476Z,2.52
2022-11-28T19:03:01.202Z,2.51
2022-11-28T19:06:04.155Z,2.52
2022-11-28T19:09:07.721Z,2.51
2022-11-28T19:12:10.241Z,2.52
2022-11-28T19:15:12.741Z,2.51
2022-11-28T19:18:16.369Z,2.53
2022-11-28T19:21:19.592Z,2.55
2022-11-28T19:24:22.413Z,2.51
2022-11-28T19:27:24.913Z,2.47
2022-11-28T19:30:27.418Z,2.51
2022-11-28T19:33:32.772Z,2.45
2022-11-28T19:36:35.597Z,2.44
2022-11-28T19:39:38.097Z,2.42
2022-11-28T19:42:40.572Z,2.43
2022-11-28T19:45:42.351Z,2.42
2022-11-28T19:48:47.699Z,2.46
2022-11-28T19:51:50.877Z,2.48
2022-11-28T19:54:53.538Z,2.51
2022-11-28T19:57:56.409Z,2.49
2022-11-28T20:01:05.917Z,2.46
2022-11-28T20:04:11.515Z,2.51
2022-11-28T20:07:13.746Z,2.51
2022-11-28T20:10:15.905Z,2.46
2022-11-28T20:13:18.600Z,2.49
2022-11-28T20:16:21.276Z,2.47
2022-11-28T20:19:25.022Z,2.44
2022-11-28T20:22:27.471Z,2.47
2022-11-28T20:25:30.095Z,2.45
2022-11-28T20:28:33.055Z,2.47
2022-11-28T20:31:36.235Z,2.50
2022-11-28T20:34:39.569Z,2.51
2022-11-28T20:37:41.633Z,2.52
2022-11-28T20:40:44.851Z,2.50
2022-11-28T20:43:47.719Z,2.51
2022-11-28T20:46:49.533Z,2.49
2022-11-28T20:49:53.084Z,2.47
2022-11-28T20:52:55.496Z,2.47
2022-11-28T20:56:00.909Z,2.51
2022-11-28T20:59:03.515Z,2.46
2022-11-28T21:02:05.748Z,2.45
2022-11-28T21:05:10.010Z,2.45
2022-11-28T21:08:13.365Z,2.41
2022-11-28T21:11:36.594Z,2.41
2022-11-28T21:14:37.979Z,2.40
2022-11-28T21:17:39.693Z,2.39
2022-11-28T21:20:44.682Z,2.38
2022-11-28T21:23:46.505Z,2.32
2022-11-28T21:26:53.502Z,2.26
2022-11-28T21:29:56.244Z,2.25
2022-11-28T21:32:58.444Z,2.23
2022-11-28T21:36:01.936Z,2.21
2022-11-28T21:39:03.730Z,2.18
2022-11-28T21:42:05.449Z,2.26
2022-11-28T21:45:07.756Z,2.29
2022-11-28T21:48:09.458Z,2.26
2022-11-28T21:51:16.429Z,2.26
2022-11-28T21:54:18.123Z,2.29
2022-11-28T21:57:19.756Z,2.29
2022-11-28T22:00:51.611Z,2.28
2022-11-28T22:03:43.436Z,2.30
2022-11-28T22:06:46.507Z,2.29
2022-11-28T22:09:48.120Z,2.30
2022-11-28T22:12:49.745Z,2.32
2022-11-28T22:15:51.443Z,2.31
2022-11-28T22:18:54.217Z,2.36
2022-11-28T22:21:57.254Z,2.37
2022-11-28T22:24:58.991Z,2.34
2022-11-28T22:28:00.720Z,2.37
2022-11-28T22:31:06.289Z,2.38
2022-11-28T22:34:08.579Z,2.37
2022-11-28T22:37:11.632Z,2.36
2022-11-28T22:40:13.982Z,2.35
2022-11-28T22:43:15.644Z,2.32
2022-11-28T22:46:17.301Z,2.32
2022-11-28T22:49:19.132Z,2.34
2022-11-28T22:52:22.165Z,2.31
2022-11-28T22:55:23.822Z,2.13
2022-11-28T22:58:25.468Z,2.24
2022-11-28T23:01:27.936Z,2.28
2022-11-28T23:04:29.684Z,2.28
2022-11-28T23:07:32.806Z,2.30
2022-11-28T23:10:36.637Z,2.31
2022-11-28T23:13:38.694Z,2.33
2022-11-28T23:16:40.933Z,2.29
2022-11-28T23:19:42.649Z,2.28
2022-11-28T23:22:45.710Z,2.32
2022-11-28T23:25:47.342Z,2.34
2022-11-28T23:28:49.114Z,2.39
2022-11-28T23:31:50.843Z,2.38
2022-11-28T23:34:52.562Z,2.32
2022-11-28T23:37:55.618Z,2.34
2022-11-28T23:40:57.333Z,2.40
2022-11-28T23:43:59.436Z,2.34
2022-11-28T23:47:01.047Z,2.32
2022-11-28T23:50:02.814Z,2.31
2022-11-28T23:53:05.886Z,2.30
2022-11-28T23:56:08.372Z,2.29
2022-11-28T23:59:10.553Z,2.31
